sensor_id;sensor_type;location;lat;lon;timestamp;P1;durP1;ratioP1;P2;durP2;ratioP2
70605;SDS011;58173;52.500;5.494;2024-01-30T00:02:17;22.83;;;11.45;;
70605;SDS011;58173;52.500;5.494;2024-01-30T00:04:44;21.77;;;11.50;;
70605;SDS011;58173;52.500;5.494;2024-01-30T00:07:11;22.70;;;10.93;;
70605;SDS011;58173;52.500;5.494;2024-01-30T00:09:39;21.05;;;10.98;;
70605;SDS011;58173;52.500;5.494;2024-01-30T00:12:06;23.60;;;10.68;;
70605;SDS011;58173;52.500;5.494;2024-01-30T00:14:34;23.00;;;10.82;;
70605;SDS011;58173;52.500;5.494;2024-01-30T00:17:01;22.15;;;11.70;;
70605;SDS011;58173;52.500;5.494;2024-01-30T00:19:28;22.25;;;10.18;;
70605;SDS011;58173;52.500;5.494;2024-01-30T00:21:55;20.70;;;10.55;;
70605;SDS011;58173;52.500;5.494;2024-01-30T00:24:23;20.02;;;10.38;;
70605;SDS011;58173;52.500;5.494;2024-01-30T00:26:50;24.30;;;10.90;;
70605;SDS011;58173;52.500;5.494;2024-01-30T00:29:18;23.73;;;10.82;;
70605;SDS011;58173;52.500;5.494;2024-01-30T00:31:46;22.05;;;10.68;;
70605;SDS011;58173;52.500;5.494;2024-01-30T00:34:13;20.88;;;11.55;;
70605;SDS011;58173;52.500;5.494;2024-01-30T00:36:41;24.90;;;10.93;;
70605;SDS011;58173;52.500;5.494;2024-01-30T00:39:08;22.23;;;10.70;;
70605;SDS011;58173;52.500;5.494;2024-01-30T00:41:35;19.90;;;9.93;;
70605;SDS011;58173;52.500;5.494;2024-01-30T00:44:03;21.75;;;11.23;;
70605;SDS011;58173;52.500;5.494;2024-01-30T00:46:30;23.00;;;10.82;;
70605;SDS011;58173;52.500;5.494;2024-01-30T00:48:57;28.00;;;11.50;;
70605;SDS011;58173;52.500;5.494;2024-01-30T00:51:25;23.50;;;11.15;;
70605;SDS011;58173;52.500;5.494;2024-01-30T00:53:52;19.70;;;9.43;;
70605;SDS011;58173;52.500;5.494;2024-01-30T00:56:19;22.42;;;10.73;;
70605;SDS011;58173;52.500;5.494;2024-01-30T00:58:46;23.25;;;10.43;;
70605;SDS011;58173;52.500;5.494;2024-01-30T01:01:14;23.70;;;10.38;;
70605;SDS011;58173;52.500;5.494;2024-01-30T01:03:41;23.13;;;10.30;;
70605;SDS011;58173;52.500;5.494;2024-01-30T01:06:10;22.75;;;10.98;;
70605;SDS011;58173;52.500;5.494;2024-01-30T01:08:38;20.85;;;11.18;;
70605;SDS011;58173;52.500;5.494;2024-01-30T01:11:05;18.20;;;8.88;;
70605;SDS011;58173;52.500;5.494;2024-01-30T01:13:32;23.42;;;10.98;;
70605;SDS011;58173;52.500;5.494;2024-01-30T01:15:59;20.08;;;10.00;;
70605;SDS011;58173;52.500;5.494;2024-01-30T01:21:18;20.58;;;10.18;;
70605;SDS011;58173;52.500;5.494;2024-01-30T01:23:46;21.88;;;10.70;;
70605;SDS011;58173;52.500;5.494;2024-01-30T01:26:13;23.05;;;11.38;;
70605;SDS011;58173;52.500;5.494;2024-01-30T01:28:40;20.17;;;10.30;;
70605;SDS011;58173;52.500;5.494;2024-01-30T01:31:08;24.42;;;10.65;;
70605;SDS011;58173;52.500;5.494;2024-01-30T01:33:35;21.55;;;10.75;;
70605;SDS011;58173;52.500;5.494;2024-01-30T01:36:04;21.70;;;10.77;;
70605;SDS011;58173;52.500;5.494;2024-01-30T01:38:32;20.70;;;9.70;;
70605;SDS011;58173;52.500;5.494;2024-01-30T01:41:00;25.30;;;10.75;;
70605;SDS011;58173;52.500;5.494;2024-01-30T01:43:27;20.25;;;9.82;;
70605;SDS011;58173;52.500;5.494;2024-01-30T01:45:54;20.65;;;8.93;;
70605;SDS011;58173;52.500;5.494;2024-01-30T01:48:22;20.73;;;9.40;;
70605;SDS011;58173;52.500;5.494;2024-01-30T01:50:49;20.60;;;10.43;;
70605;SDS011;58173;52.500;5.494;2024-01-30T01:53:17;21.55;;;10.57;;
70605;SDS011;58173;52.500;5.494;2024-01-30T01:55:45;21.20;;;9.77;;
70605;SDS011;58173;52.500;5.494;2024-01-30T01:58:12;19.92;;;10.63;;
70605;SDS011;58173;52.500;5.494;2024-01-30T02:00:39;23.05;;;10.70;;
70605;SDS011;58173;52.500;5.494;2024-01-30T02:03:10;22.70;;;10.13;;
70605;SDS011;58173;52.500;5.494;2024-01-30T02:05:39;20.23;;;9.32;;
70605;SDS011;58173;52.500;5.494;2024-01-30T02:11:00;20.25;;;10.82;;
70605;SDS011;58173;52.500;5.494;2024-01-30T02:16:31;23.23;;;9.80;;
70605;SDS011;58173;52.500;5.494;2024-01-30T02:18:59;20.58;;;9.93;;
70605;SDS011;58173;52.500;5.494;2024-01-30T02:21:26;19.52;;;9.48;;
70605;SDS011;58173;52.500;5.494;2024-01-30T02:23:54;19.42;;;10.20;;
70605;SDS011;58173;52.500;5.494;2024-01-30T02:26:22;19.17;;;9.88;;
70605;SDS011;58173;52.500;5.494;2024-01-30T02:28:49;21.25;;;10.00;;
70605;SDS011;58173;52.500;5.494;2024-01-30T02:31:16;18.33;;;9.13;;
70605;SDS011;58173;52.500;5.494;2024-01-30T02:33:44;19.42;;;10.02;;
70605;SDS011;58173;52.500;5.494;2024-01-30T02:36:11;18.83;;;9.63;;
70605;SDS011;58173;52.500;5.494;2024-01-30T02:38:39;19.90;;;9.25;;
70605;SDS011;58173;52.500;5.494;2024-01-30T02:41:06;18.35;;;9.65;;
70605;SDS011;58173;52.500;5.494;2024-01-30T02:43:33;18.10;;;9.23;;
70605;SDS011;58173;52.500;5.494;2024-01-30T02:46:00;16.83;;;7.72;;
70605;SDS011;58173;52.500;5.494;2024-01-30T02:48:28;18.48;;;9.77;;
70605;SDS011;58173;52.500;5.494;2024-01-30T02:50:55;19.80;;;10.13;;
70605;SDS011;58173;52.500;5.494;2024-01-30T02:53:24;17.70;;;8.50;;
70605;SDS011;58173;52.500;5.494;2024-01-30T02:55:51;15.52;;;7.53;;
70605;SDS011;58173;52.500;5.494;2024-01-30T02:58:19;18.75;;;9.30;;
70605;SDS011;58173;52.500;5.494;2024-01-30T03:00:46;18.63;;;8.82;;
70605;SDS011;58173;52.500;5.494;2024-01-30T03:03:13;21.08;;;10.05;;
70605;SDS011;58173;52.500;5.494;2024-01-30T03:05:41;21.55;;;9.85;;
70605;SDS011;58173;52.500;5.494;2024-01-30T03:08:08;18.63;;;9.38;;
70605;SDS011;58173;52.500;5.494;2024-01-30T03:10:35;17.25;;;8.85;;
70605;SDS011;58173;52.500;5.494;2024-01-30T03:13:03;19.60;;;10.07;;
70605;SDS011;58173;52.500;5.494;2024-01-30T03:15:30;18.00;;;9.05;;
70605;SDS011;58173;52.500;5.494;2024-01-30T03:17:57;19.83;;;9.52;;
70605;SDS011;58173;52.500;5.494;2024-01-30T03:20:25;21.15;;;9.52;;
70605;SDS011;58173;52.500;5.494;2024-01-30T03:22:53;17.95;;;9.10;;
70605;SDS011;58173;52.500;5.494;2024-01-30T03:25:21;18.83;;;9.02;;
70605;SDS011;58173;52.500;5.494;2024-01-30T03:27:48;18.77;;;9.43;;
70605;SDS011;58173;52.500;5.494;2024-01-30T03:30:15;19.40;;;8.68;;
70605;SDS011;58173;52.500;5.494;2024-01-30T03:32:43;18.13;;;9.23;;
70605;SDS011;58173;52.500;5.494;2024-01-30T03:38:11;20.08;;;9.60;;
70605;SDS011;58173;52.500;5.494;2024-01-30T03:44:12;17.63;;;8.57;;
70605;SDS011;58173;52.500;5.494;2024-01-30T03:46:39;17.88;;;8.63;;
70605;SDS011;58173;52.500;5.494;2024-01-30T03:49:06;18.58;;;9.48;;
70605;SDS011;58173;52.500;5.494;2024-01-30T03:51:34;17.10;;;7.75;;
70605;SDS011;58173;52.500;5.494;2024-01-30T03:54:01;17.13;;;7.55;;
70605;SDS011;58173;52.500;5.494;2024-01-30T03:56:28;18.95;;;8.93;;
70605;SDS011;58173;52.500;5.494;2024-01-30T03:58:55;16.85;;;8.68;;
70605;SDS011;58173;52.500;5.494;2024-01-30T04:01:23;19.05;;;8.60;;
70605;SDS011;58173;52.500;5.494;2024-01-30T04:03:50;18.85;;;9.27;;
70605;SDS011;58173;52.500;5.494;2024-01-30T04:06:17;20.75;;;8.90;;
70605;SDS011;58173;52.500;5.494;2024-01-30T04:08:45;16.40;;;7.68;;
70605;SDS011;58173;52.500;5.494;2024-01-30T04:11:12;21.35;;;9.75;;
70605;SDS011;58173;52.500;5.494;2024-01-30T04:13:39;16.33;;;7.90;;
70605;SDS011;58173;52.500;5.494;2024-01-30T04:16:18;17.55;;;7.90;;
70605;SDS011;58173;52.500;5.494;2024-01-30T04:18:46;17.02;;;8.52;;
70605;SDS011;58173;52.500;5.494;2024-01-30T04:21:13;21.98;;;8.90;;
70605;SDS011;58173;52.500;5.494;2024-01-30T04:23:41;17.83;;;8.45;;
70605;SDS011;58173;52.500;5.494;2024-01-30T04:26:08;17.70;;;8.32;;
70605;SDS011;58173;52.500;5.494;2024-01-30T04:28:35;19.20;;;8.82;;
70605;SDS011;58173;52.500;5.494;2024-01-30T04:31:03;20.17;;;9.15;;
70605;SDS011;58173;52.500;5.494;2024-01-30T04:33:30;19.98;;;8.52;;
70605;SDS011;58173;52.500;5.494;2024-01-30T04:35:57;18.23;;;9.10;;
70605;SDS011;58173;52.500;5.494;2024-01-30T04:38:24;20.80;;;9.77;;
70605;SDS011;58173;52.500;5.494;2024-01-30T04:40:52;19.83;;;9.73;;
70605;SDS011;58173;52.500;5.494;2024-01-30T04:43:19;19.20;;;8.10;;
70605;SDS011;58173;52.500;5.494;2024-01-30T04:45:47;18.55;;;9.20;;
70605;SDS011;58173;52.500;5.494;2024-01-30T04:48:14;19.75;;;8.32;;
70605;SDS011;58173;52.500;5.494;2024-01-30T04:50:41;21.45;;;10.13;;
70605;SDS011;58173;52.500;5.494;2024-01-30T04:53:09;20.20;;;9.75;;
70605;SDS011;58173;52.500;5.494;2024-01-30T04:55:36;20.40;;;9.90;;
70605;SDS011;58173;52.500;5.494;2024-01-30T04:58:03;21.38;;;9.30;;
70605;SDS011;58173;52.500;5.494;2024-01-30T05:00:31;23.60;;;10.38;;
70605;SDS011;58173;52.500;5.494;2024-01-30T05:02:58;22.30;;;9.60;;
70605;SDS011;58173;52.500;5.494;2024-01-30T05:05:25;18.88;;;9.55;;
70605;SDS011;58173;52.500;5.494;2024-01-30T05:07:52;20.55;;;9.55;;
70605;SDS011;58173;52.500;5.494;2024-01-30T05:10:20;18.33;;;9.27;;
70605;SDS011;58173;52.500;5.494;2024-01-30T05:12:47;23.48;;;9.98;;
70605;SDS011;58173;52.500;5.494;2024-01-30T05:15:14;18.65;;;9.30;;
70605;SDS011;58173;52.500;5.494;2024-01-30T05:17:41;20.20;;;9.35;;
70605;SDS011;58173;52.500;5.494;2024-01-30T05:20:09;17.77;;;8.93;;
70605;SDS011;58173;52.500;5.494;2024-01-30T05:22:37;19.83;;;9.00;;
70605;SDS011;58173;52.500;5.494;2024-01-30T05:25:05;18.27;;;7.30;;
70605;SDS011;58173;52.500;5.494;2024-01-30T05:27:32;19.25;;;8.25;;
70605;SDS011;58173;52.500;5.494;2024-01-30T05:29:59;19.08;;;8.68;;
70605;SDS011;58173;52.500;5.494;2024-01-30T05:32:27;16.27;;;8.32;;
70605;SDS011;58173;52.500;5.494;2024-01-30T05:34:54;22.02;;;8.80;;
70605;SDS011;58173;52.500;5.494;2024-01-30T05:37:21;17.85;;;8.38;;
70605;SDS011;58173;52.500;5.494;2024-01-30T05:39:49;16.80;;;7.88;;
70605;SDS011;58173;52.500;5.494;2024-01-30T05:42:16;17.23;;;7.90;;
70605;SDS011;58173;52.500;5.494;2024-01-30T05:44:43;19.15;;;9.13;;
70605;SDS011;58173;52.500;5.494;2024-01-30T05:47:10;17.73;;;8.30;;
70605;SDS011;58173;52.500;5.494;2024-01-30T05:49:38;19.83;;;7.78;;
70605;SDS011;58173;52.500;5.494;2024-01-30T05:52:05;18.10;;;8.98;;
70605;SDS011;58173;52.500;5.494;2024-01-30T05:54:33;16.08;;;8.05;;
70605;SDS011;58173;52.500;5.494;2024-01-30T05:57:00;18.67;;;8.68;;
70605;SDS011;58173;52.500;5.494;2024-01-30T05:59:27;15.15;;;7.50;;
70605;SDS011;58173;52.500;5.494;2024-01-30T06:01:54;16.58;;;8.20;;
70605;SDS011;58173;52.500;5.494;2024-01-30T06:04:23;18.90;;;8.40;;
70605;SDS011;58173;52.500;5.494;2024-01-30T06:06:50;18.27;;;7.93;;
70605;SDS011;58173;52.500;5.494;2024-01-30T06:09:17;16.45;;;7.88;;
70605;SDS011;58173;52.500;5.494;2024-01-30T06:11:45;18.50;;;8.55;;
70605;SDS011;58173;52.500;5.494;2024-01-30T06:14:12;18.60;;;7.93;;
70605;SDS011;58173;52.500;5.494;2024-01-30T06:16:39;17.58;;;8.38;;
70605;SDS011;58173;52.500;5.494;2024-01-30T06:19:07;20.45;;;8.32;;
70605;SDS011;58173;52.500;5.494;2024-01-30T06:21:34;17.65;;;8.32;;
70605;SDS011;58173;52.500;5.494;2024-01-30T06:24:04;18.88;;;7.60;;
70605;SDS011;58173;52.500;5.494;2024-01-30T06:26:31;17.00;;;7.60;;
70605;SDS011;58173;52.500;5.494;2024-01-30T06:28:59;13.70;;;6.22;;
70605;SDS011;58173;52.500;5.494;2024-01-30T06:31:26;16.40;;;7.65;;
70605;SDS011;58173;52.500;5.494;2024-01-30T06:33:53;18.13;;;7.90;;
70605;SDS011;58173;52.500;5.494;2024-01-30T06:36:21;16.52;;;7.45;;
70605;SDS011;58173;52.500;5.494;2024-01-30T06:38:48;17.70;;;7.97;;
70605;SDS011;58173;52.500;5.494;2024-01-30T06:41:15;15.80;;;7.75;;
70605;SDS011;58173;52.500;5.494;2024-01-30T06:43:43;17.00;;;8.02;;
70605;SDS011;58173;52.500;5.494;2024-01-30T06:46:11;16.73;;;8.00;;
70605;SDS011;58173;52.500;5.494;2024-01-30T06:48:39;18.48;;;7.82;;
70605;SDS011;58173;52.500;5.494;2024-01-30T06:51:07;17.70;;;8.27;;
70605;SDS011;58173;52.500;5.494;2024-01-30T06:53:34;15.80;;;6.95;;
70605;SDS011;58173;52.500;5.494;2024-01-30T06:56:01;16.52;;;8.18;;
70605;SDS011;58173;52.500;5.494;2024-01-30T06:58:28;17.23;;;7.68;;
70605;SDS011;58173;52.500;5.494;2024-01-30T07:00:56;14.95;;;7.85;;
70605;SDS011;58173;52.500;5.494;2024-01-30T07:03:24;14.00;;;6.20;;
70605;SDS011;58173;52.500;5.494;2024-01-30T07:05:51;14.18;;;6.30;;
70605;SDS011;58173;52.500;5.494;2024-01-30T07:08:18;14.90;;;7.10;;
70605;SDS011;58173;52.500;5.494;2024-01-30T07:10:46;18.33;;;8.32;;
70605;SDS011;58173;52.500;5.494;2024-01-30T07:13:13;14.75;;;6.80;;
70605;SDS011;58173;52.500;5.494;2024-01-30T07:15:43;18.00;;;7.30;;
70605;SDS011;58173;52.500;5.494;2024-01-30T07:18:10;15.98;;;7.68;;
70605;SDS011;58173;52.500;5.494;2024-01-30T07:20:37;15.70;;;7.65;;
70605;SDS011;58173;52.500;5.494;2024-01-30T07:23:08;16.60;;;7.53;;
70605;SDS011;58173;52.500;5.494;2024-01-30T07:25:40;16.00;;;6.70;;
70605;SDS011;58173;52.500;5.494;2024-01-30T07:28:08;18.45;;;7.18;;
70605;SDS011;58173;52.500;5.494;2024-01-30T07:30:38;18.23;;;8.00;;
70605;SDS011;58173;52.500;5.494;2024-01-30T07:33:05;16.27;;;6.43;;
70605;SDS011;58173;52.500;5.494;2024-01-30T07:35:33;17.52;;;6.90;;
70605;SDS011;58173;52.500;5.494;2024-01-30T07:38:00;19.15;;;7.68;;
70605;SDS011;58173;52.500;5.494;2024-01-30T07:40:27;18.25;;;8.07;;
70605;SDS011;58173;52.500;5.494;2024-01-30T07:42:55;16.60;;;7.60;;
70605;SDS011;58173;52.500;5.494;2024-01-30T07:45:22;16.42;;;7.22;;
70605;SDS011;58173;52.500;5.494;2024-01-30T07:47:51;16.60;;;7.50;;
70605;SDS011;58173;52.500;5.494;2024-01-30T07:50:18;23.27;;;8.50;;
70605;SDS011;58173;52.500;5.494;2024-01-30T07:52:45;18.02;;;7.55;;
70605;SDS011;58173;52.500;5.494;2024-01-30T07:55:15;16.50;;;7.55;;
70605;SDS011;58173;52.500;5.494;2024-01-30T07:57:42;19.15;;;8.65;;
70605;SDS011;58173;52.500;5.494;2024-01-30T08:00:09;17.83;;;7.10;;
70605;SDS011;58173;52.500;5.494;2024-01-30T08:02:37;16.58;;;8.13;;
70605;SDS011;58173;52.500;5.494;2024-01-30T08:05:20;18.23;;;7.47;;
70605;SDS011;58173;52.500;5.494;2024-01-30T08:07:49;18.40;;;8.13;;
70605;SDS011;58173;52.500;5.494;2024-01-30T08:10:16;18.80;;;7.72;;
70605;SDS011;58173;52.500;5.494;2024-01-30T08:12:47;16.13;;;7.13;;
70605;SDS011;58173;52.500;5.494;2024-01-30T08:15:14;17.67;;;7.60;;
70605;SDS011;58173;52.500;5.494;2024-01-30T08:17:41;17.83;;;7.82;;
70605;SDS011;58173;52.500;5.494;2024-01-30T08:20:09;17.13;;;6.85;;
70605;SDS011;58173;52.500;5.494;2024-01-30T08:22:38;17.80;;;8.05;;
70605;SDS011;58173;52.500;5.494;2024-01-30T08:25:06;14.85;;;7.03;;
70605;SDS011;58173;52.500;5.494;2024-01-30T08:27:34;15.80;;;6.65;;
70605;SDS011;58173;52.500;5.494;2024-01-30T08:30:05;18.50;;;6.40;;
70605;SDS011;58173;52.500;5.494;2024-01-30T08:32:32;16.63;;;7.00;;
70605;SDS011;58173;52.500;5.494;2024-01-30T08:35:00;15.30;;;6.85;;
70605;SDS011;58173;52.500;5.494;2024-01-30T08:37:30;15.30;;;7.13;;
70605;SDS011;58173;52.500;5.494;2024-01-30T08:39:58;17.10;;;6.82;;
70605;SDS011;58173;52.500;5.494;2024-01-30T08:42:26;16.35;;;7.70;;
70605;SDS011;58173;52.500;5.494;2024-01-30T08:44:53;16.23;;;7.00;;
70605;SDS011;58173;52.500;5.494;2024-01-30T08:47:22;15.85;;;6.63;;
70605;SDS011;58173;52.500;5.494;2024-01-30T08:49:49;15.05;;;6.57;;
70605;SDS011;58173;52.500;5.494;2024-01-30T08:52:16;14.85;;;6.35;;
70605;SDS011;58173;52.500;5.494;2024-01-30T08:54:44;16.65;;;6.68;;
70605;SDS011;58173;52.500;5.494;2024-01-30T08:57:12;18.23;;;7.13;;
70605;SDS011;58173;52.500;5.494;2024-01-30T08:59:39;18.02;;;7.05;;
70605;SDS011;58173;52.500;5.494;2024-01-30T09:02:06;19.02;;;7.00;;
70605;SDS011;58173;52.500;5.494;2024-01-30T09:04:38;16.13;;;6.75;;
70605;SDS011;58173;52.500;5.494;2024-01-30T09:07:06;15.15;;;6.80;;
70605;SDS011;58173;52.500;5.494;2024-01-30T09:09:39;16.70;;;6.93;;
70605;SDS011;58173;52.500;5.494;2024-01-30T09:14:36;14.95;;;6.55;;
70605;SDS011;58173;52.500;5.494;2024-01-30T09:17:03;12.60;;;5.25;;
70605;SDS011;58173;52.500;5.494;2024-01-30T09:19:31;20.45;;;7.30;;
70605;SDS011;58173;52.500;5.494;2024-01-30T09:21:59;14.93;;;6.75;;
70605;SDS011;58173;52.500;5.494;2024-01-30T09:24:26;13.70;;;5.13;;
70605;SDS011;58173;52.500;5.494;2024-01-30T09:26:54;16.00;;;7.10;;
70605;SDS011;58173;52.500;5.494;2024-01-30T09:29:21;16.52;;;7.55;;
70605;SDS011;58173;52.500;5.494;2024-01-30T09:31:49;12.82;;;5.35;;
70605;SDS011;58173;52.500;5.494;2024-01-30T09:34:16;12.18;;;4.72;;
70605;SDS011;58173;52.500;5.494;2024-01-30T09:36:43;18.65;;;7.97;;
70605;SDS011;58173;52.500;5.494;2024-01-30T09:39:11;15.55;;;6.35;;
70605;SDS011;58173;52.500;5.494;2024-01-30T09:41:44;13.65;;;5.38;;
70605;SDS011;58173;52.500;5.494;2024-01-30T09:44:12;15.20;;;6.63;;
70605;SDS011;58173;52.500;5.494;2024-01-30T09:46:40;12.45;;;5.38;;
70605;SDS011;58173;52.500;5.494;2024-01-30T09:49:08;16.33;;;7.50;;
70605;SDS011;58173;52.500;5.494;2024-01-30T09:51:35;16.95;;;7.28;;
70605;SDS011;58173;52.500;5.494;2024-01-30T09:54:03;16.92;;;7.18;;
70605;SDS011;58173;52.500;5.494;2024-01-30T09:56:30;12.38;;;5.03;;
70605;SDS011;58173;52.500;5.494;2024-01-30T09:58:58;12.07;;;5.20;;
70605;SDS011;58173;52.500;5.494;2024-01-30T10:01:25;15.65;;;7.05;;
70605;SDS011;58173;52.500;5.494;2024-01-30T10:03:53;15.75;;;7.28;;
70605;SDS011;58173;52.500;5.494;2024-01-30T10:06:21;18.58;;;7.63;;
70605;SDS011;58173;52.500;5.494;2024-01-30T10:08:50;17.45;;;7.72;;
70605;SDS011;58173;52.500;5.494;2024-01-30T10:11:18;15.68;;;5.85;;
70605;SDS011;58173;52.500;5.494;2024-01-30T10:13:45;15.13;;;6.55;;
70605;SDS011;58173;52.500;5.494;2024-01-30T10:16:15;13.60;;;6.38;;
70605;SDS011;58173;52.500;5.494;2024-01-30T10:18:43;16.48;;;7.18;;
70605;SDS011;58173;52.500;5.494;2024-01-30T10:21:10;15.98;;;7.07;;
70605;SDS011;58173;52.500;5.494;2024-01-30T10:23:37;17.23;;;6.68;;
70605;SDS011;58173;52.500;5.494;2024-01-30T10:26:06;15.23;;;7.00;;
70605;SDS011;58173;52.500;5.494;2024-01-30T10:28:34;13.55;;;6.75;;
70605;SDS011;58173;52.500;5.494;2024-01-30T10:31:01;18.77;;;7.32;;
70605;SDS011;58173;52.500;5.494;2024-01-30T10:33:32;13.35;;;6.05;;
70605;SDS011;58173;52.500;5.494;2024-01-30T10:36:01;13.73;;;5.55;;
70605;SDS011;58173;52.500;5.494;2024-01-30T10:38:29;15.02;;;6.55;;
70605;SDS011;58173;52.500;5.494;2024-01-30T10:40:57;13.90;;;5.43;;
70605;SDS011;58173;52.500;5.494;2024-01-30T10:43:47;11.45;;;5.03;;
70605;SDS011;58173;52.500;5.494;2024-01-30T10:46:20;14.52;;;5.72;;
70605;SDS011;58173;52.500;5.494;2024-01-30T10:48:58;12.15;;;4.80;;
70605;SDS011;58173;52.500;5.494;2024-01-30T10:51:26;13.13;;;5.53;;
70605;SDS011;58173;52.500;5.494;2024-01-30T10:53:54;9.80;;;4.95;;
70605;SDS011;58173;52.500;5.494;2024-01-30T10:56:23;11.20;;;4.55;;
70605;SDS011;58173;52.500;5.494;2024-01-30T10:58:51;14.65;;;5.97;;
70605;SDS011;58173;52.500;5.494;2024-01-30T11:01:27;14.75;;;5.53;;
70605;SDS011;58173;52.500;5.494;2024-01-30T11:03:58;9.35;;;3.85;;
70605;SDS011;58173;52.500;5.494;2024-01-30T11:06:25;7.70;;;3.35;;
70605;SDS011;58173;52.500;5.494;2024-01-30T11:09:02;10.60;;;3.40;;
70605;SDS011;58173;52.500;5.494;2024-01-30T11:14:16;6.28;;;2.33;;
70605;SDS011;58173;52.500;5.494;2024-01-30T11:16:43;5.90;;;2.08;;
70605;SDS011;58173;52.500;5.494;2024-01-30T11:19:12;6.72;;;2.60;;
70605;SDS011;58173;52.500;5.494;2024-01-30T11:21:42;6.07;;;2.30;;
70605;SDS011;58173;52.500;5.494;2024-01-30T11:24:10;7.10;;;2.35;;
70605;SDS011;58173;52.500;5.494;2024-01-30T11:26:42;4.85;;;2.05;;
70605;SDS011;58173;52.500;5.494;2024-01-30T11:29:09;6.97;;;1.92;;
70605;SDS011;58173;52.500;5.494;2024-01-30T11:31:36;2.58;;;1.30;;
70605;SDS011;58173;52.500;5.494;2024-01-30T11:34:03;4.22;;;1.50;;
70605;SDS011;58173;52.500;5.494;2024-01-30T11:36:32;3.58;;;1.83;;
70605;SDS011;58173;52.500;5.494;2024-01-30T11:39:03;3.95;;;1.77;;
70605;SDS011;58173;52.500;5.494;2024-01-30T11:41:31;3.40;;;1.77;;
70605;SDS011;58173;52.500;5.494;2024-01-30T11:43:58;3.75;;;1.58;;
70605;SDS011;58173;52.500;5.494;2024-01-30T11:46:26;7.53;;;2.00;;
70605;SDS011;58173;52.500;5.494;2024-01-30T11:48:53;4.03;;;1.92;;
70605;SDS011;58173;52.500;5.494;2024-01-30T11:51:20;4.38;;;1.75;;
70605;SDS011;58173;52.500;5.494;2024-01-30T11:53:49;5.15;;;1.77;;
70605;SDS011;58173;52.500;5.494;2024-01-30T11:56:16;6.57;;;2.20;;
70605;SDS011;58173;52.500;5.494;2024-01-30T11:58:43;2.28;;;0.90;;
70605;SDS011;58173;52.500;5.494;2024-01-30T12:01:11;4.30;;;1.10;;
70605;SDS011;58173;52.500;5.494;2024-01-30T12:03:38;6.53;;;1.67;;
70605;SDS011;58173;52.500;5.494;2024-01-30T12:06:05;4.20;;;1.20;;
70605;SDS011;58173;52.500;5.494;2024-01-30T12:08:33;2.35;;;1.05;;
70605;SDS011;58173;52.500;5.494;2024-01-30T12:11:00;3.50;;;1.15;;
70605;SDS011;58173;52.500;5.494;2024-01-30T12:13:28;3.42;;;1.33;;
70605;SDS011;58173;52.500;5.494;2024-01-30T12:15:59;3.40;;;1.33;;
70605;SDS011;58173;52.500;5.494;2024-01-30T12:18:27;5.57;;;2.40;;
70605;SDS011;58173;52.500;5.494;2024-01-30T12:21:00;4.75;;;2.20;;
70605;SDS011;58173;52.500;5.494;2024-01-30T12:23:28;3.00;;;0.90;;
70605;SDS011;58173;52.500;5.494;2024-01-30T12:25:57;3.30;;;1.50;;
70605;SDS011;58173;52.500;5.494;2024-01-30T12:28:25;3.97;;;1.48;;
70605;SDS011;58173;52.500;5.494;2024-01-30T12:30:56;3.60;;;1.58;;
70605;SDS011;58173;52.500;5.494;2024-01-30T12:33:28;3.13;;;1.60;;
70605;SDS011;58173;52.500;5.494;2024-01-30T12:35:56;6.90;;;2.17;;
70605;SDS011;58173;52.500;5.494;2024-01-30T12:38:29;7.32;;;3.25;;
70605;SDS011;58173;52.500;5.494;2024-01-30T12:44:50;3.08;;;1.50;;
70605;SDS011;58173;52.500;5.494;2024-01-30T12:50:22;4.68;;;2.17;;
70605;SDS011;58173;52.500;5.494;2024-01-30T12:52:50;8.45;;;2.78;;
70605;SDS011;58173;52.500;5.494;2024-01-30T12:55:17;5.60;;;1.10;;
70605;SDS011;58173;52.500;5.494;2024-01-30T12:57:45;6.40;;;2.50;;
70605;SDS011;58173;52.500;5.494;2024-01-30T13:00:12;9.68;;;2.50;;
70605;SDS011;58173;52.500;5.494;2024-01-30T13:02:40;5.18;;;1.55;;
70605;SDS011;58173;52.500;5.494;2024-01-30T13:05:09;5.50;;;1.60;;
70605;SDS011;58173;52.500;5.494;2024-01-30T13:07:36;5.15;;;1.40;;
70605;SDS011;58173;52.500;5.494;2024-01-30T13:10:03;3.60;;;1.10;;
70605;SDS011;58173;52.500;5.494;2024-01-30T13:12:31;8.13;;;1.58;;
70605;SDS011;58173;52.500;5.494;2024-01-30T13:15:01;9.80;;;2.13;;
70605;SDS011;58173;52.500;5.494;2024-01-30T13:17:31;7.30;;;1.65;;
70605;SDS011;58173;52.500;5.494;2024-01-30T13:19:58;2.40;;;1.05;;
70605;SDS011;58173;52.500;5.494;2024-01-30T13:22:36;4.25;;;1.55;;
70605;SDS011;58173;52.500;5.494;2024-01-30T13:25:05;2.78;;;1.08;;
70605;SDS011;58173;52.500;5.494;2024-01-30T13:27:33;4.50;;;1.52;;
70605;SDS011;58173;52.500;5.494;2024-01-30T13:30:01;5.40;;;1.70;;
70605;SDS011;58173;52.500;5.494;2024-01-30T13:32:28;6.20;;;1.55;;
70605;SDS011;58173;52.500;5.494;2024-01-30T13:34:55;6.00;;;1.90;;
70605;SDS011;58173;52.500;5.494;2024-01-30T13:37:23;4.38;;;1.60;;
70605;SDS011;58173;52.500;5.494;2024-01-30T13:39:50;8.55;;;1.98;;
70605;SDS011;58173;52.500;5.494;2024-01-30T13:42:17;6.47;;;1.60;;
70605;SDS011;58173;52.500;5.494;2024-01-30T13:44:45;5.13;;;1.80;;
70605;SDS011;58173;52.500;5.494;2024-01-30T13:47:12;5.10;;;1.55;;
70605;SDS011;58173;52.500;5.494;2024-01-30T13:49:40;5.05;;;2.63;;
70605;SDS011;58173;52.500;5.494;2024-01-30T13:52:07;6.85;;;2.72;;
70605;SDS011;58173;52.500;5.494;2024-01-30T13:54:34;3.15;;;1.30;;
70605;SDS011;58173;52.500;5.494;2024-01-30T13:57:02;6.45;;;1.92;;
70605;SDS011;58173;52.500;5.494;2024-01-30T13:59:29;4.93;;;1.95;;
70605;SDS011;58173;52.500;5.494;2024-01-30T14:01:56;6.70;;;2.13;;
70605;SDS011;58173;52.500;5.494;2024-01-30T14:04:24;6.55;;;2.42;;
70605;SDS011;58173;52.500;5.494;2024-01-30T14:06:51;4.10;;;1.50;;
70605;SDS011;58173;52.500;5.494;2024-01-30T14:09:30;5.10;;;1.80;;
70605;SDS011;58173;52.500;5.494;2024-01-30T14:11:58;2.47;;;1.17;;
70605;SDS011;58173;52.500;5.494;2024-01-30T14:14:26;5.45;;;1.88;;
70605;SDS011;58173;52.500;5.494;2024-01-30T14:16:53;3.42;;;1.17;;
70605;SDS011;58173;52.500;5.494;2024-01-30T14:19:20;5.35;;;1.73;;
70605;SDS011;58173;52.500;5.494;2024-01-30T14:21:48;3.15;;;1.45;;
70605;SDS011;58173;52.500;5.494;2024-01-30T14:24:15;5.28;;;1.83;;
70605;SDS011;58173;52.500;5.494;2024-01-30T14:26:42;5.22;;;2.03;;
70605;SDS011;58173;52.500;5.494;2024-01-30T14:29:10;4.40;;;2.00;;
70605;SDS011;58173;52.500;5.494;2024-01-30T14:31:37;4.47;;;1.67;;
70605;SDS011;58173;52.500;5.494;2024-01-30T14:34:05;3.58;;;1.50;;
70605;SDS011;58173;52.500;5.494;2024-01-30T14:36:32;5.57;;;1.70;;
70605;SDS011;58173;52.500;5.494;2024-01-30T14:39:01;4.20;;;1.83;;
70605;SDS011;58173;52.500;5.494;2024-01-30T14:41:29;4.20;;;1.90;;
70605;SDS011;58173;52.500;5.494;2024-01-30T14:43:56;3.35;;;1.30;;
70605;SDS011;58173;52.500;5.494;2024-01-30T14:46:24;4.07;;;1.90;;
70605;SDS011;58173;52.500;5.494;2024-01-30T14:48:53;3.22;;;1.50;;
70605;SDS011;58173;52.500;5.494;2024-01-30T14:51:20;5.82;;;1.60;;
70605;SDS011;58173;52.500;5.494;2024-01-30T14:53:48;5.97;;;1.67;;
70605;SDS011;58173;52.500;5.494;2024-01-30T14:56:15;4.22;;;1.67;;
70605;SDS011;58173;52.500;5.494;2024-01-30T14:58:44;5.22;;;1.50;;
70605;SDS011;58173;52.500;5.494;2024-01-30T15:01:11;6.60;;;2.00;;
70605;SDS011;58173;52.500;5.494;2024-01-30T15:03:38;6.72;;;1.90;;
70605;SDS011;58173;52.500;5.494;2024-01-30T15:06:06;2.92;;;1.10;;
70605;SDS011;58173;52.500;5.494;2024-01-30T15:08:33;3.10;;;1.40;;